Time;durP1;ratioP1;P1;durP2;ratioP2;P2;SDS_P1;SDS_P2;PMS_P1;PMS_P2;Temp;Humidity;BMP_temperature;BMP_pressure;BME280_temperature;BME280_humidity;BME280_pressure;Samples;Min_cycle;Max_cycle;Signal;HPM_P1;HPM_P2
2022/05/29 00:00:11;;;;;;;17.70;7.27;;;;;;;;;;5051837;28;20941;-69
2022/05/29 00:05:49;;;;;;;28.37;7.77;;;;;;;;;;5051927;28;20418;-69
2022/05/29 00:08:22;;;;;;;24.70;9.40;;;;;;;;;;5051976;28;20440;-69
2022/05/29 00:10:51;;;;;;;20.40;8.87;;;;;;;;;;5051840;28;20455;-69
2022/05/29 00:13:19;;;;;;;21.57;9.47;;;;;;;;;;5051829;28;20462;-69
2022/05/29 00:15:47;;;;;;;23.40;10.27;;;;;;;;;;5051527;28;20916;-69
2022/05/29 00:18:14;;;;;;;21.90;9.83;;;;;;;;;;5051604;28;20956;-69
2022/05/29 00:20:42;;;;;;;25.83;10.87;;;;;;;;;;5051748;28;20495;-69
2022/05/29 00:23:10;;;;;;;23.00;10.60;;;;;;;;;;5051464;28;20937;-69
2022/05/29 00:25:38;;;;;;;23.07;9.87;;;;;;;;;;5051713;28;20835;-69
2022/05/29 00:28:07;;;;;;;24.07;11.03;;;;;;;;;;5051531;28;20451;-69
2022/05/29 00:30:35;;;;;;;22.73;8.60;;;;;;;;;;5051934;28;20440;-69
2022/05/29 00:33:02;;;;;;;21.47;9.30;;;;;;;;;;5051266;28;20451;-69
2022/05/29 00:35:29;;;;;;;20.37;8.70;;;;;;;;;;5051935;28;20480;-69
2022/05/29 00:37:57;;;;;;;18.90;8.60;;;;;;;;;;5051525;28;20443;-70
2022/05/29 00:40:30;;;;;;;24.00;10.33;;;;;;;;;;5051564;28;20451;-69
2022/05/29 00:42:58;;;;;;;20.20;8.10;;;;;;;;;;5051349;28;20463;-69
2022/05/29 00:45:28;;;;;;;20.27;7.97;;;;;;;;;;5052118;28;20452;-70
2022/05/29 00:47:56;;;;;;;28.00;10.43;;;;;;;;;;5051636;28;20993;-70
2022/05/29 00:50:24;;;;;;;18.87;9.10;;;;;;;;;;5051753;28;20439;-69
2022/05/29 00:52:52;;;;;;;21.90;9.00;;;;;;;;;;5051716;28;20432;-69
2022/05/29 00:55:21;;;;;;;19.30;8.53;;;;;;;;;;5055211;28;20483;-69
2022/05/29 00:57:53;;;;;;;25.73;9.43;;;;;;;;;;5055579;28;20451;-69
2022/05/29 01:00:23;;;;;;;19.20;8.50;;;;;;;;;;5055194;28;21018;-70
2022/05/29 01:02:52;;;;;;;21.83;8.73;;;;;;;;;;5055520;28;20461;-70
2022/05/29 01:05:20;;;;;;;19.60;7.70;;;;;;;;;;5055157;28;20458;-70
2022/05/29 01:07:50;;;;;;;17.13;6.70;;;;;;;;;;5054885;28;20439;-69
2022/05/29 01:10:18;;;;;;;26.27;8.90;;;;;;;;;;5055524;28;20450;-69
2022/05/29 01:12:50;;;;;;;17.20;6.97;;;;;;;;;;5055159;28;20756;-66
2022/05/29 01:15:24;;;;;;;19.00;7.30;;;;;;;;;;5054711;28;21077;-69
2022/05/29 01:17:56;;;;;;;22.10;8.80;;;;;;;;;;5055000;28;20430;-69
2022/05/29 01:20:32;;;;;;;21.80;8.47;;;;;;;;;;5054756;28;20443;-69
2022/05/29 01:23:30;;;;;;;20.17;8.67;;;;;;;;;;5054795;28;20443;-70
2022/05/29 01:26:15;;;;;;;16.53;7.47;;;;;;;;;;5054735;28;20447;-67
2022/05/29 01:28:49;;;;;;;25.27;8.37;;;;;;;;;;5054686;28;20436;-68
2022/05/29 01:31:24;;;;;;;22.70;8.60;;;;;;;;;;5054464;28;20944;-67
2022/05/29 01:33:57;;;;;;;18.60;7.83;;;;;;;;;;5054807;28;20446;-68
2022/05/29 01:36:31;;;;;;;18.60;8.20;;;;;;;;;;5054769;28;20491;-67
2022/05/29 01:39:00;;;;;;;20.67;8.63;;;;;;;;;;5054188;28;20442;-68
2022/05/29 01:41:33;;;;;;;24.20;8.30;;;;;;;;;;5054375;28;21018;-68
2022/05/29 01:44:06;;;;;;;18.27;7.67;;;;;;;;;;5054795;28;20813;-67
2022/05/29 01:46:36;;;;;;;22.10;8.00;;;;;;;;;;5054429;28;20444;-68
2022/05/29 01:49:08;;;;;;;18.93;7.67;;;;;;;;;;5054068;28;20440;-67
2022/05/29 01:51:39;;;;;;;18.60;7.00;;;;;;;;;;5054225;28;20440;-67
2022/05/29 01:54:11;;;;;;;21.97;8.40;;;;;;;;;;5054071;28;20974;-68
2022/05/29 01:56:41;;;;;;;19.53;7.43;;;;;;;;;;5054219;28;20574;-68
2022/05/29 01:59:14;;;;;;;17.50;7.20;;;;;;;;;;5053520;28;20439;-67
2022/05/29 02:01:45;;;;;;;20.67;7.27;;;;;;;;;;5053971;28;20498;-67
2022/05/29 02:04:15;;;;;;;21.03;8.00;;;;;;;;;;5053807;28;20446;-67
2022/05/29 02:09:34;;;;;;;19.60;7.20;;;;;;;;;;5054241;28;20427;-67
2022/05/29 02:12:02;;;;;;;19.33;7.37;;;;;;;;;;5053527;28;20455;-68
2022/05/29 02:14:34;;;;;;;17.53;6.53;;;;;;;;;;5053715;28;20444;-67
2022/05/29 02:17:05;;;;;;;19.50;7.27;;;;;;;;;;5053525;28;20849;-69
2022/05/29 02:19:34;;;;;;;21.30;7.50;;;;;;;;;;5054285;28;20443;-69
2022/05/29 02:22:03;;;;;;;16.67;6.00;;;;;;;;;;5053574;28;20479;-68
2022/05/29 02:24:33;;;;;;;17.53;6.43;;;;;;;;;;5054209;28;20440;-67
2022/05/29 02:27:06;;;;;;;17.33;5.90;;;;;;;;;;5053252;28;21068;-67
2022/05/29 02:29:35;;;;;;;17.27;5.83;;;;;;;;;;5053922;28;20490;-68
2022/05/29 02:32:07;;;;;;;21.03;7.17;;;;;;;;;;5053983;28;20828;-68
2022/05/29 02:34:36;;;;;;;17.07;5.80;;;;;;;;;;5053382;28;20953;-69
2022/05/29 02:37:07;;;;;;;18.43;6.00;;;;;;;;;;5053107;28;20479;-69
2022/05/29 02:39:42;;;;;;;17.50;6.90;;;;;;;;;;5053205;28;20438;-68
2022/05/29 02:42:23;;;;;;;20.13;6.57;;;;;;;;;;5053320;28;20446;-68
2022/05/29 02:44:59;;;;;;;23.57;6.77;;;;;;;;;;5053524;28;20439;-68
2022/05/29 02:47:30;;;;;;;18.17;6.03;;;;;;;;;;5053207;28;20822;-68
2022/05/29 02:50:25;;;;;;;21.30;6.77;;;;;;;;;;5053130;28;20436;-68
2022/05/29 02:52:53;;;;;;;19.73;6.17;;;;;;;;;;5017870;28;20448;-67
2022/05/29 02:55:20;;;;;;;26.63;6.90;;;;;;;;;;5053245;28;20530;-68
2022/05/29 02:57:48;;;;;;;22.03;7.37;;;;;;;;;;5052890;28;20885;-68
2022/05/29 03:00:17;;;;;;;17.10;5.37;;;;;;;;;;5052753;28;20443;-68
2022/05/29 03:02:53;;;;;;;21.77;6.40;;;;;;;;;;5053284;28;20509;-68
2022/05/29 03:05:24;;;;;;;23.57;6.70;;;;;;;;;;5052905;28;20451;-68
2022/05/29 03:07:59;;;;;;;21.63;7.67;;;;;;;;;;5052815;28;20454;-68
2022/05/29 03:10:29;;;;;;;18.63;6.77;;;;;;;;;;5052551;28;20513;-68
2022/05/29 03:12:59;;;;;;;20.17;8.20;;;;;;;;;;5052377;28;20842;-68
2022/05/29 03:15:34;;;;;;;18.90;7.27;;;;;;;;;;5052568;28;20839;-68
2022/05/29 03:18:12;;;;;;;21.00;8.27;;;;;;;;;;5052548;28;20530;-68
2022/05/29 03:20:43;;;;;;;18.73;6.93;;;;;;;;;;5052508;28;20436;-68
2022/05/29 03:23:12;;;;;;;18.90;6.83;;;;;;;;;;5052086;28;20444;-68
2022/05/29 03:25:43;;;;;;;22.03;7.83;;;;;;;;;;5052373;28;20454;-68
2022/05/29 03:28:17;;;;;;;22.83;6.90;;;;;;;;;;5052615;28;20438;-68
2022/05/29 03:30:48;;;;;;;17.37;6.67;;;;;;;;;;5052693;28;20450;-67
2022/05/29 03:33:16;;;;;;;27.27;9.23;;;;;;;;;;5052195;28;20432;-68
2022/05/29 03:35:47;;;;;;;18.63;6.93;;;;;;;;;;5052265;28;20446;-68
2022/05/29 03:38:14;;;;;;;28.53;8.27;;;;;;;;;;5052236;28;20442;-68
2022/05/29 03:40:42;;;;;;;20.13;8.07;;;;;;;;;;5052222;28;20444;-68
2022/05/29 03:43:09;;;;;;;22.70;7.90;;;;;;;;;;5052118;28;20815;-68
2022/05/29 03:45:37;;;;;;;27.13;7.33;;;;;;;;;;5052103;28;20448;-69
2022/05/29 03:48:06;;;;;;;21.00;8.00;;;;;;;;;;5052175;28;20463;-68
2022/05/29 03:50:35;;;;;;;20.67;7.17;;;;;;;;;;5052254;28;20794;-68
2022/05/29 03:53:03;;;;;;;19.40;6.57;;;;;;;;;;5052067;28;20437;-68
2022/05/29 03:55:31;;;;;;;19.47;6.57;;;;;;;;;;5052204;28;20495;-68
2022/05/29 03:57:59;;;;;;;16.30;6.80;;;;;;;;;;5052094;28;20480;-68
2022/05/29 04:00:27;;;;;;;21.63;7.10;;;;;;;;;;5051913;28;20826;-68
2022/05/29 04:02:55;;;;;;;18.43;7.30;;;;;;;;;;5051554;28;20446;-68
2022/05/29 04:05:25;;;;;;;20.27;5.97;;;;;;;;;;5052193;28;20435;-67
2022/05/29 04:13:29;;;;;;;19.80;5.93;;;;;;;;;;5051902;28;20458;-67
2022/05/29 04:15:57;;;;;;;18.20;6.53;;;;;;;;;;5051646;28;20432;-68
2022/05/29 04:18:24;;;;;;;18.87;7.20;;;;;;;;;;5052000;28;20797;-68
2022/05/29 04:20:53;;;;;;;18.53;7.20;;;;;;;;;;5051812;28;20471;-67
2022/05/29 04:23:22;;;;;;;16.80;6.50;;;;;;;;;;5051721;28;20458;-67
2022/05/29 04:25:49;;;;;;;17.63;6.90;;;;;;;;;;5051697;28;20436;-67
2022/05/29 04:28:17;;;;;;;16.63;6.33;;;;;;;;;;5054443;28;20447;-68
2022/05/29 04:30:45;;;;;;;19.90;6.40;;;;;;;;;;5055953;28;20432;-68
2022/05/29 04:33:12;;;;;;;18.17;7.07;;;;;;;;;;5055606;28;20818;-68
2022/05/29 04:35:41;;;;;;;20.63;7.00;;;;;;;;;;5055836;28;20447;-68
2022/05/29 04:38:11;;;;;;;22.13;6.70;;;;;;;;;;5055418;28;20477;-68
2022/05/29 04:40:39;;;;;;;18.13;6.30;;;;;;;;;;5055989;28;20446;-68
2022/05/29 04:43:07;;;;;;;19.77;6.00;;;;;;;;;;5055280;28;20483;-67
2022/05/29 04:45:34;;;;;;;17.73;5.83;;;;;;;;;;5055554;28;20446;-68
2022/05/29 04:48:02;;;;;;;16.97;3.80;;;;;;;;;;5055412;28;20435;-68
2022/05/29 04:50:29;;;;;;;20.93;7.43;;;;;;;;;;5055400;28;20447;-68
2022/05/29 04:52:57;;;;;;;17.30;6.13;;;;;;;;;;5055346;28;20440;-67
2022/05/29 04:55:25;;;;;;;20.70;8.00;;;;;;;;;;5055245;28;20440;-68
2022/05/29 04:57:53;;;;;;;23.20;7.00;;;;;;;;;;5055271;28;20479;-67
2022/05/29 05:00:21;;;;;;;22.50;7.57;;;;;;;;;;5055141;28;20941;-68
2022/05/29 05:02:49;;;;;;;16.70;5.90;;;;;;;;;;5055518;28;20444;-67
2022/05/29 05:05:16;;;;;;;18.07;6.27;;;;;;;;;;5054755;28;20976;-68
2022/05/29 05:07:44;;;;;;;18.97;5.77;;;;;;;;;;5055309;28;20432;-68
2022/05/29 05:10:15;;;;;;;19.50;6.90;;;;;;;;;;5055029;28;20439;-68
2022/05/29 05:12:44;;;;;;;21.10;5.77;;;;;;;;;;5054743;28;20978;-68
2022/05/29 05:15:15;;;;;;;14.30;4.60;;;;;;;;;;5054671;28;20443;-68
2022/05/29 05:17:42;;;;;;;18.50;5.43;;;;;;;;;;5054719;28;20483;-67
2022/05/29 05:20:10;;;;;;;16.23;5.43;;;;;;;;;;5055450;28;20447;-68
2022/05/29 05:22:38;;;;;;;17.90;4.00;;;;;;;;;;5054586;28;20475;-68
2022/05/29 05:25:06;;;;;;;16.93;4.20;;;;;;;;;;5054634;28;20466;-67
2022/05/29 05:27:33;;;;;;;18.03;6.80;;;;;;;;;;5054777;28;20448;-67
2022/05/29 05:30:02;;;;;;;28.27;9.50;;;;;;;;;;5054586;28;20973;-68
2022/05/29 05:32:30;;;;;;;29.67;15.80;;;;;;;;;;5054531;28;20442;-68
2022/05/29 05:35:02;;;;;;;36.07;20.00;;;;;;;;;;5054340;28;20451;-68
2022/05/29 05:37:30;;;;;;;31.80;18.07;;;;;;;;;;5054472;28;20479;-68
2022/05/29 05:39:57;;;;;;;26.20;12.50;;;;;;;;;;5053721;28;20448;-68
2022/05/29 05:42:25;;;;;;;25.10;11.70;;;;;;;;;;5054390;28;20945;-68
2022/05/29 05:44:52;;;;;;;16.77;6.67;;;;;;;;;;5054165;28;20476;-67
2022/05/29 05:47:22;;;;;;;17.87;5.57;;;;;;;;;;5054608;28;20443;-69
2022/05/29 05:49:50;;;;;;;13.30;3.77;;;;;;;;;;5054945;28;20457;-68
2022/05/29 05:52:18;;;;;;;14.30;4.17;;;;;;;;;;5054155;28;20964;-68
2022/05/29 05:54:46;;;;;;;16.27;3.33;;;;;;;;;;5054145;28;20448;-67
2022/05/29 05:57:13;;;;;;;12.70;3.33;;;;;;;;;;5053750;28;20484;-68
2022/05/29 05:59:42;;;;;;;14.73;3.53;;;;;;;;;;5054660;28;20832;-68
2022/05/29 06:02:10;;;;;;;14.03;3.90;;;;;;;;;;5054639;28;20432;-68
2022/05/29 06:04:39;;;;;;;16.53;3.90;;;;;;;;;;5054030;28;20444;-68
2022/05/29 06:07:08;;;;;;;15.93;4.23;;;;;;;;;;5053687;28;20544;-67
2022/05/29 06:09:36;;;;;;;14.33;3.50;;;;;;;;;;5053943;28;20437;-68
2022/05/29 06:12:04;;;;;;;12.20;2.50;;;;;;;;;;5053749;28;20464;-68
2022/05/29 06:14:34;;;;;;;13.80;4.50;;;;;;;;;;5054291;28;20889;-67
2022/05/29 06:17:01;;;;;;;14.50;3.80;;;;;;;;;;5053415;28;20474;-68
2022/05/29 06:19:29;;;;;;;17.20;3.53;;;;;;;;;;5053872;28;20443;-68
2022/05/29 06:21:58;;;;;;;13.00;3.63;;;;;;;;;;5053884;28;20484;-68
2022/05/29 06:24:26;;;;;;;14.73;3.70;;;;;;;;;;5053557;28;20968;-68
2022/05/29 06:26:57;;;;;;;13.60;3.40;;;;;;;;;;5053601;28;20448;-68
2022/05/29 06:29:24;;;;;;;14.80;3.47;;;;;;;;;;5053557;28;20451;-68
2022/05/29 06:31:53;;;;;;;14.40;3.67;;;;;;;;;;5053971;28;20841;-67
2022/05/29 06:34:21;;;;;;;14.37;3.63;;;;;;;;;;5053478;28;20489;-68
2022/05/29 06:36:49;;;;;;;14.80;4.10;;;;;;;;;;5053234;28;20448;-68
2022/05/29 06:39:18;;;;;;;14.33;4.53;;;;;;;;;;5053217;28;20439;-68
2022/05/29 06:41:47;;;;;;;14.43;4.03;;;;;;;;;;5053518;28;20470;-67
2022/05/29 06:44:14;;;;;;;15.67;3.77;;;;;;;;;;5053248;28;20452;-67
2022/05/29 06:46:42;;;;;;;13.90;3.90;;;;;;;;;;5053541;28;20855;-68
2022/05/29 06:49:10;;;;;;;14.97;3.87;;;;;;;;;;5053142;28;20438;-68
2022/05/29 06:51:37;;;;;;;15.90;3.90;;;;;;;;;;5051982;28;20530;-68
2022/05/29 06:54:05;;;;;;;13.87;3.83;;;;;;;;;;5053652;28;20446;-68
2022/05/29 06:56:34;;;;;;;17.10;3.20;;;;;;;;;;5053193;28;20845;-68
2022/05/29 06:59:05;;;;;;;18.50;3.20;;;;;;;;;;5053145;28;20841;-68
2022/05/29 07:07:05;;;;;;;15.33;3.30;;;;;;;;;;5052663;28;20504;-66
2022/05/29 07:09:33;;;;;;;19.23;3.87;;;;;;;;;;5052684;28;20452;-66
2022/05/29 07:12:05;;;;;;;15.80;4.03;;;;;;;;;;5052573;28;20453;-66
2022/05/29 07:14:34;;;;;;;18.10;4.40;;;;;;;;;;5052621;28;20448;-66
2022/05/29 07:17:01;;;;;;;19.37;5.43;;;;;;;;;;5052369;28;20804;-65
2022/05/29 07:19:29;;;;;;;16.63;4.63;;;;;;;;;;5052516;28;20445;-65
2022/05/29 07:21:57;;;;;;;15.30;4.27;;;;;;;;;;5052675;28;20486;-65
2022/05/29 07:24:25;;;;;;;18.13;5.23;;;;;;;;;;5052510;28;20442;-66
2022/05/29 07:26:53;;;;;;;16.93;4.60;;;;;;;;;;5052342;28;20452;-66
2022/05/29 07:29:22;;;;;;;16.13;3.93;;;;;;;;;;5052548;28;20446;-66
2022/05/29 07:31:50;;;;;;;18.60;4.23;;;;;;;;;;5051600;28;20460;-65
2022/05/29 07:34:18;;;;;;;12.80;3.10;;;;;;;;;;5050984;28;20446;-65
2022/05/29 07:36:45;;;;;;;15.23;4.20;;;;;;;;;;5052615;28;20447;-66
2022/05/29 07:39:13;;;;;;;16.00;4.00;;;;;;;;;;5050002;28;20488;-65
2022/05/29 07:44:26;;;;;;;19.07;4.70;;;;;;;;;;5052292;28;20444;-65
2022/05/29 07:46:54;;;;;;;21.03;4.70;;;;;;;;;;5051625;28;20823;-66
2022/05/29 07:49:22;;;;;;;19.17;4.83;;;;;;;;;;5052200;28;20446;-66
2022/05/29 07:51:49;;;;;;;19.50;5.50;;;;;;;;;;5051813;28;20824;-66
2022/05/29 07:54:17;;;;;;;16.67;5.40;;;;;;;;;;5052246;28;20513;-66
2022/05/29 07:56:45;;;;;;;17.03;5.30;;;;;;;;;;5052014;28;20441;-65
2022/05/29 07:59:14;;;;;;;21.43;5.67;;;;;;;;;;5051857;28;20593;-65
2022/05/29 08:01:43;;;;;;;19.17;5.30;;;;;;;;;;5051272;28;20447;-66
2022/05/29 08:04:11;;;;;;;16.93;5.63;;;;;;;;;;5051840;28;20446;-65
2022/05/29 08:06:38;;;;;;;16.07;5.40;;;;;;;;;;5051797;28;20457;-66
2022/05/29 08:09:06;;;;;;;22.20;5.30;;;;;;;;;;5051863;28;20459;-65
2022/05/29 08:11:33;;;;;;;20.03;6.70;;;;;;;;;;5051360;28;21018;-66
2022/05/29 08:14:01;;;;;;;19.90;5.43;;;;;;;;;;5051768;28;20439;-66
2022/05/29 08:16:29;;;;;;;15.13;3.77;;;;;;;;;;5051644;28;20977;-66
2022/05/29 08:18:58;;;;;;;16.20;5.07;;;;;;;;;;5051392;28;20489;-65
2022/05/29 08:21:26;;;;;;;16.57;5.10;;;;;;;;;;5051542;28;20488;-65
2022/05/29 08:32:12;;;;;;;16.80;5.80;;;;;;;;;;5051742;28;20528;-66
2022/05/29 08:34:42;;;;;;;23.67;6.50;;;;;;;;;;5051563;28;20975;-65
2022/05/29 08:37:10;;;;;;;16.50;5.63;;;;;;;;;;5051629;28;20530;-66
2022/05/29 08:39:37;;;;;;;16.00;5.30;;;;;;;;;;5051442;28;20819;-66
2022/05/29 08:42:05;;;;;;;20.53;6.43;;;;;;;;;;5051433;28;20451;-66
2022/05/29 08:44:37;;;;;;;18.40;6.60;;;;;;;;;;5051507;28;20438;-66
2022/05/29 08:47:05;;;;;;;23.33;6.07;;;;;;;;;;5051566;28;20448;-65
2022/05/29 08:49:34;;;;;;;17.90;5.80;;;;;;;;;;5051682;28;20452;-66
2022/05/29 08:52:10;;;;;;;17.90;5.57;;;;;;;;;;5051481;28;20460;-65
2022/05/29 08:54:43;;;;;;;17.77;5.40;;;;;;;;;;5051433;28;20437;-66
2022/05/29 08:57:16;;;;;;;17.10;6.00;;;;;;;;;;5051447;28;20434;-66
2022/05/29 08:59:47;;;;;;;18.30;5.60;;;;;;;;;;5051509;28;20444;-66
2022/05/29 09:02:18;;;;;;;17.23;5.10;;;;;;;;;;5051369;28;20970;-66
2022/05/29 09:04:47;;;;;;;18.63;5.27;;;;;;;;;;5051253;28;20970;-66
2022/05/29 09:07:18;;;;;;;15.60;4.90;;;;;;;;;;5051019;28;20435;-66
2022/05/29 09:09:49;;;;;;;14.80;5.03;;;;;;;;;;5051316;28;20472;-66
2022/05/29 09:12:18;;;;;;;18.57;5.33;;;;;;;;;;5050911;28;20985;-66
2022/05/29 09:14:49;;;;;;;19.97;6.30;;;;;;;;;;5053143;28;20450;-66
2022/05/29 09:17:18;;;;;;;17.87;5.53;;;;;;;;;;5054682;28;20846;-66
2022/05/29 09:19:49;;;;;;;17.10;6.10;;;;;;;;;;5055072;28;20508;-66
2022/05/29 09:22:21;;;;;;;15.47;5.50;;;;;;;;;;5055070;28;20529;-66
2022/05/29 09:24:52;;;;;;;15.63;4.27;;;;;;;;;;5054770;28;20438;-66
2022/05/29 09:27:19;;;;;;;15.53;5.63;;;;;;;;;;5054841;28;20448;-65
2022/05/29 09:29:47;;;;;;;20.70;5.87;;;;;;;;;;5054508;28;20450;-66
2022/05/29 09:32:17;;;;;;;16.30;5.00;;;;;;;;;;5054915;28;20449;-66
2022/05/29 09:34:44;;;;;;;17.43;6.30;;;;;;;;;;5054602;28;20953;-66
2022/05/29 09:37:16;;;;;;;18.57;6.03;;;;;;;;;;5054332;28;20440;-65
2022/05/29 09:39:47;;;;;;;17.90;6.37;;;;;;;;;;5054516;28;20485;-69
2022/05/29 09:42:19;;;;;;;23.20;6.43;;;;;;;;;;5054546;28;20808;-67
2022/05/29 09:45:04;;;;;;;18.17;7.60;;;;;;;;;;5054656;28;20438;-67
2022/05/29 09:50:17;;;;;;;22.40;8.97;;;;;;;;;;5054349;28;20935;-67
2022/05/29 09:52:45;;;;;;;23.17;7.10;;;;;;;;;;5054158;28;20431;-67
2022/05/29 09:55:22;;;;;;;26.23;10.17;;;;;;;;;;5054109;28;20572;-67
2022/05/29 09:57:53;;;;;;;24.00;9.37;;;;;;;;;;5054026;28;20955;-67
2022/05/29 10:00:27;;;;;;;20.07;8.70;;;;;;;;;;5053985;28;20454;-67
2022/05/29 10:02:55;;;;;;;26.13;10.53;;;;;;;;;;5054206;28;20477;-67
2022/05/29 10:05:24;;;;;;;19.50;7.80;;;;;;;;;;5053735;28;20452;-67
2022/05/29 10:07:53;;;;;;;21.57;10.27;;;;;;;;;;5053863;28;20440;-67
2022/05/29 10:10:32;;;;;;;20.73;9.30;;;;;;;;;;5054161;28;20434;-67
2022/05/29 10:13:02;;;;;;;22.40;11.40;;;;;;;;;;5053356;28;20853;-67
2022/05/29 10:15:37;;;;;;;27.40;12.30;;;;;;;;;;5054000;28;20886;-67
2022/05/29 10:18:11;;;;;;;23.53;11.10;;;;;;;;;;5053693;28;20474;-67
2022/05/29 10:20:40;;;;;;;22.30;9.43;;;;;;;;;;5053839;28;20454;-67
2022/05/29 10:23:08;;;;;;;20.73;8.30;;;;;;;;;;5053807;28;20442;-67
2022/05/29 10:25:38;;;;;;;25.63;8.43;;;;;;;;;;5053499;28;20449;-67
2022/05/29 10:28:13;;;;;;;40.07;10.03;;;;;;;;;;5053609;28;20985;-69
2022/05/29 10:30:43;;;;;;;21.27;9.03;;;;;;;;;;5053576;28;20434;-67
2022/05/29 10:33:13;;;;;;;22.20;9.43;;;;;;;;;;5052835;28;20432;-67
2022/05/29 10:35:41;;;;;;;22.70;10.10;;;;;;;;;;5053370;28;20435;-69
2022/05/29 10:38:16;;;;;;;22.40;11.33;;;;;;;;;;5053312;28;20836;-67
2022/05/29 10:40:45;;;;;;;24.57;10.67;;;;;;;;;;5053261;28;20435;-67
2022/05/29 10:43:14;;;;;;;26.30;10.00;;;;;;;;;;5053237;28;20470;-67
2022/05/29 10:45:43;;;;;;;24.90;9.93;;;;;;;;;;5047546;28;20437;-69
2022/05/29 10:48:18;;;;;;;19.23;8.07;;;;;;;;;;5040207;28;21421;-67
2022/05/29 10:50:55;;;;;;;25.70;10.60;;;;;;;;;;5043356;28;20847;-68
2022/05/29 10:53:37;;;;;;;23.33;9.53;;;;;;;;;;5047561;28;20471;-69
2022/05/29 10:56:11;;;;;;;22.83;8.67;;;;;;;;;;5044784;28;20900;-68
2022/05/29 10:58:53;;;;;;;23.63;8.50;;;;;;;;;;5050431;28;20495;-68
2022/05/29 11:04:29;;;;;;;18.77;7.30;;;;;;;;;;5052401;28;20669;-67
2022/05/29 11:07:06;;;;;;;21.43;7.70;;;;;;;;;;5052231;28;20494;-68
2022/05/29 11:09:43;;;;;;;21.80;8.70;;;;;;;;;;5052223;28;20468;-69
2022/05/29 11:12:23;;;;;;;18.60;7.70;;;;;;;;;;5050808;28;20487;-67
2022/05/29 11:15:02;;;;;;;20.73;7.50;;;;;;;;;;5045914;28;20533;-67
2022/05/29 11:17:36;;;;;;;20.10;7.60;;;;;;;;;;5052156;28;20479;-67
2022/05/29 11:20:07;;;;;;;19.87;8.53;;;;;;;;;;5046103;28;20509;-68
2022/05/29 11:22:39;;;;;;;21.50;8.20;;;;;;;;;;5042767;28;20827;-67
2022/05/29 11:25:14;;;;;;;19.17;7.30;;;;;;;;;;5041952;28;20854;-68
2022/05/29 11:28:07;;;;;;;21.97;7.23;;;;;;;;;;5039756;28;20506;-68
2022/05/29 11:30:39;;;;;;;21.97;7.40;;;;;;;;;;5048355;28;20523;-68
2022/05/29 11:33:13;;;;;;;17.10;6.03;;;;;;;;;;5051706;28;21065;-68
2022/05/29 11:35:53;;;;;;;18.47;7.40;;;;;;;;;;5044846;28;20470;-68
2022/05/29 11:38:28;;;;;;;22.80;9.07;;;;;;;;;;5043381;28;20486;-68
2022/05/29 11:40:58;;;;;;;18.80;7.23;;;;;;;;;;5041793;28;20480;-68
2022/05/29 11:43:29;;;;;;;19.50;7.60;;;;;;;;;;5041704;28;20475;-68
2022/05/29 11:51:38;;;;;;;19.43;7.43;;;;;;;;;;5043661;28;20487;-67
2022/05/29 11:54:10;;;;;;;17.07;6.40;;;;;;;;;;5042087;28;20466;-68
2022/05/29 11:56:39;;;;;;;24.00;8.10;;;;;;;;;;5043413;28;20492;-68
2022/05/29 11:59:12;;;;;;;18.70;7.30;;;;;;;;;;5044469;28;20497;-68
2022/05/29 12:01:42;;;;;;;18.00;7.07;;;;;;;;;;5042006;28;20847;-69
2022/05/29 12:04:13;;;;;;;18.90;7.10;;;;;;;;;;5043256;28;20537;-69
2022/05/29 12:06:43;;;;;;;18.27;6.80;;;;;;;;;;5039737;28;20537;-68
2022/05/29 12:09:14;;;;;;;19.23;6.53;;;;;;;;;;5043604;28;20559;-69
2022/05/29 12:11:45;;;;;;;23.10;9.47;;;;;;;;;;5049449;28;20490;-69
2022/05/29 12:14:17;;;;;;;21.50;7.50;;;;;;;;;;5051359;28;20463;-68
2022/05/29 12:16:46;;;;;;;19.47;6.93;;;;;;;;;;5051417;28;20521;-68
2022/05/29 12:19:17;;;;;;;18.80;7.07;;;;;;;;;;5051064;28;20510;-69
2022/05/29 12:21:47;;;;;;;18.27;7.97;;;;;;;;;;5051076;28;20480;-68
2022/05/29 12:24:17;;;;;;;18.40;7.00;;;;;;;;;;5051354;28;20464;-70
2022/05/29 12:26:46;;;;;;;21.50;8.00;;;;;;;;;;5048390;28;20507;-69
2022/05/29 12:29:19;;;;;;;20.30;7.57;;;;;;;;;;5049305;28;20553;-69
2022/05/29 12:31:49;;;;;;;22.53;8.27;;;;;;;;;;5050974;28;20475;-69
2022/05/29 12:34:18;;;;;;;20.17;7.60;;;;;;;;;;5050836;28;20466;-69
2022/05/29 12:36:56;;;;;;;23.13;8.07;;;;;;;;;;5051022;28;20472;-67
2022/05/29 12:39:30;;;;;;;22.27;8.70;;;;;;;;;;5032818;28;20476;-68
2022/05/29 12:42:11;;;;;;;19.73;7.50;;;;;;;;;;5040553;28;20452;-69
2022/05/29 12:44:48;;;;;;;21.23;7.77;;;;;;;;;;5041777;28;20536;-69
2022/05/29 12:47:25;;;;;;;26.60;8.27;;;;;;;;;;5039238;28;20438;-68
2022/05/29 12:50:05;;;;;;;20.87;8.30;;;;;;;;;;5037961;28;20459;-69
2022/05/29 12:52:39;;;;;;;20.00;7.17;;;;;;;;;;5045226;28;20437;-69
2022/05/29 12:55:20;;;;;;;21.90;8.77;;;;;;;;;;5047272;28;20449;-69
2022/05/29 12:57:54;;;;;;;23.63;8.20;;;;;;;;;;5044578;28;20445;-68
2022/05/29 13:00:42;;;;;;;23.97;7.73;;;;;;;;;;5055116;28;20491;-69
2022/05/29 13:03:37;;;;;;;21.23;8.80;;;;;;;;;;5055161;28;20444;-68
2022/05/29 13:06:12;;;;;;;23.03;9.00;;;;;;;;;;5055049;28;20449;-68
2022/05/29 13:08:54;;;;;;;23.27;9.17;;;;;;;;;;5055092;28;20436;-69
2022/05/29 13:11:23;;;;;;;32.80;7.83;;;;;;;;;;5054894;28;20480;-68
2022/05/29 13:13:55;;;;;;;18.80;7.23;;;;;;;;;;5055134;28;20462;-69
2022/05/29 13:16:24;;;;;;;24.10;6.50;;;;;;;;;;5055122;28;20451;-69
2022/05/29 13:24:32;;;;;;;19.27;6.60;;;;;;;;;;5089696;28;20557;-67
2022/05/29 13:27:18;;;;;;;18.50;6.50;;;;;;;;;;5089051;28;20457;-67
2022/05/29 13:29:46;;;;;;;14.70;4.13;;;;;;;;;;5089522;28;20446;-67
2022/05/29 13:32:18;;;;;;;18.43;5.10;;;;;;;;;;5089362;28;20434;-68
2022/05/29 13:34:47;;;;;;;16.10;5.37;;;;;;;;;;5089240;28;20446;-69
2022/05/29 13:37:23;;;;;;;14.00;3.80;;;;;;;;;;5088982;28;20496;-68
2022/05/29 13:40:00;;;;;;;17.93;4.57;;;;;;;;;;5089082;28;20880;-68
2022/05/29 13:42:31;;;;;;;16.50;4.77;;;;;;;;;;5089184;28;20484;-69
2022/05/29 13:44:58;;;;;;;23.93;5.27;;;;;;;;;;5089208;28;20473;-69
2022/05/29 13:47:44;;;;;;;19.87;5.30;;;;;;;;;;5089065;28;20447;-68
2022/05/29 13:50:29;;;;;;;18.63;4.70;;;;;;;;;;5088969;28;20440;-67
2022/05/29 13:52:58;;;;;;;15.00;4.20;;;;;;;;;;5088686;28;20931;-68
2022/05/29 13:55:26;;;;;;;14.00;3.93;;;;;;;;;;5088804;28;20431;-69
2022/05/29 14:06:25;;;;;;;15.53;4.63;;;;;;;;;;5088569;28;20872;-69
2022/05/29 14:08:55;;;;;;;15.23;4.53;;;;;;;;;;5087223;28;20515;-69
2022/05/29 14:11:42;;;;;;;17.53;4.73;;;;;;;;;;5082557;28;20487;-69
2022/05/29 14:14:24;;;;;;;16.50;4.73;;;;;;;;;;5068960;28;20493;-69
2022/05/29 14:16:55;;;;;;;15.27;4.30;;;;;;;;;;5066545;28;20468;-71
2022/05/29 14:19:36;;;;;;;17.50;4.53;;;;;;;;;;5060545;28;20483;-70
2022/05/29 14:22:12;;;;;;;18.97;4.70;;;;;;;;;;5065691;28;20490;-69
2022/05/29 14:24:54;;;;;;;18.00;4.70;;;;;;;;;;5066822;28;20498;-69
2022/05/29 14:27:31;;;;;;;15.47;4.43;;;;;;;;;;5060363;28;20490;-69
2022/05/29 14:30:14;;;;;;;17.33;5.17;;;;;;;;;;5061654;28;20471;-68
2022/05/29 14:32:54;;;;;;;16.30;4.87;;;;;;;;;;5066834;28;20483;-67
2022/05/29 14:35:46;;;;;;;16.60;4.80;;;;;;;;;;5055964;28;20483;-68
2022/05/29 14:38:31;;;;;;;15.70;4.70;;;;;;;;;;5040908;28;20471;-68
2022/05/29 14:41:00;;;;;;;17.70;6.33;;;;;;;;;;5050988;28;20467;-69
2022/05/29 14:43:29;;;;;;;14.90;5.30;;;;;;;;;;5051417;28;20506;-68
2022/05/29 14:46:03;;;;;;;27.30;4.20;;;;;;;;;;5051784;28;20460;-67
2022/05/29 14:48:37;;;;;;;15.70;6.00;;;;;;;;;;5050520;28;20472;-68
2022/05/29 14:51:08;;;;;;;15.87;5.33;;;;;;;;;;5051091;28;20461;-68
2022/05/29 14:53:40;;;;;;;19.53;6.10;;;;;;;;;;5049711;28;20471;-67
2022/05/29 14:56:11;;;;;;;18.33;5.53;;;;;;;;;;5052700;28;20912;-67
2022/05/29 14:58:40;;;;;;;19.83;5.40;;;;;;;;;;5053403;28;21058;-66
2022/05/29 15:01:08;;;;;;;16.07;5.50;;;;;;;;;;5053262;28;20473;-67
2022/05/29 15:03:40;;;;;;;16.50;4.63;;;;;;;;;;5053153;28;20499;-68
2022/05/29 15:06:07;;;;;;;17.63;5.67;;;;;;;;;;5053668;28;20508;-68
2022/05/29 15:14:36;;;;;;;20.60;6.60;;;;;;;;;;5053253;28;20565;-68
2022/05/29 15:17:04;;;;;;;16.90;6.00;;;;;;;;;;5053273;28;20478;-69
2022/05/29 15:25:09;;;;;;;21.13;7.40;;;;;;;;;;5051223;28;20443;-69
2022/05/29 15:27:40;;;;;;;18.03;4.93;;;;;;;;;;5053633;28;20446;-67
2022/05/29 15:30:12;;;;;;;20.03;6.50;;;;;;;;;;5053617;28;20444;-68
2022/05/29 15:32:40;;;;;;;18.93;7.47;;;;;;;;;;5053792;28;20427;-68
2022/05/29 15:35:14;;;;;;;15.50;4.27;;;;;;;;;;5053476;28;20436;-68
2022/05/29 15:37:53;;;;;;;17.87;6.50;;;;;;;;;;5053902;28;20446;-68
2022/05/29 15:40:27;;;;;;;16.17;5.80;;;;;;;;;;5053398;28;20435;-68
2022/05/29 15:43:01;;;;;;;19.67;6.43;;;;;;;;;;5053482;28;20435;-67
2022/05/29 15:45:37;;;;;;;16.80;6.60;;;;;;;;;;5051994;28;20453;-68
2022/05/29 15:48:23;;;;;;;17.93;6.33;;;;;;;;;;5051748;28;20442;-68
2022/05/29 15:50:54;;;;;;;18.40;7.40;;;;;;;;;;5049268;28;20677;-68
2022/05/29 15:53:36;;;;;;;18.47;6.33;;;;;;;;;;5048783;28;20455;-68
2022/05/29 15:56:06;;;;;;;20.83;7.63;;;;;;;;;;5048960;28;20452;-68